sensor_id;sensor_type;location;lat;lon;timestamp;pressure;altitude;pressure_sealevel;temperature;humidity
43770;BME280;6597;52.218;9.882;2023-08-30T00:01:50;100062.97;;;12.60;100.00
43770;BME280;6597;52.218;9.882;2023-08-30T00:04:17;100063.31;;;12.54;100.00
43770;BME280;6597;52.218;9.882;2023-08-30T00:06:44;100060.00;;;12.51;100.00
43770;BME280;6597;52.218;9.882;2023-08-30T00:09:11;100060.25;;;12.46;100.00
43770;BME280;6597;52.218;9.882;2023-08-30T00:11:38;100062.47;;;12.38;100.00
43770;BME280;6597;52.218;9.882;2023-08-30T00:14:05;100058.44;;;12.31;100.00
43770;BME280;6597;52.218;9.882;2023-08-30T00:16:32;100058.75;;;12.25;100.00
43770;BME280;6597;52.218;9.882;2023-08-30T00:18:59;100063.25;;;12.23;100.00
43770;BME280;6597;52.218;9.882;2023-08-30T00:21:26;100067.84;;;12.19;100.00
43770;BME280;6597;52.218;9.882;2023-08-30T00:23:54;100061.97;;;12.14;100.00
43770;BME280;6597;52.218;9.882;2023-08-30T00:26:21;100063.91;;;12.10;100.00
43770;BME280;6597;52.218;9.882;2023-08-30T00:28:48;100061.53;;;12.06;100.00
43770;BME280;6597;52.218;9.882;2023-08-30T00:31:14;100060.69;;;12.05;100.00
43770;BME280;6597;52.218;9.882;2023-08-30T00:33:41;100058.97;;;12.04;100.00
43770;BME280;6597;52.218;9.882;2023-08-30T00:36:07;100052.88;;;12.04;100.00
43770;BME280;6597;52.218;9.882;2023-08-30T00:38:34;100054.66;;;12.03;100.00
43770;BME280;6597;52.218;9.882;2023-08-30T00:41:02;100056.34;;;12.04;100.00
43770;BME280;6597;52.218;9.882;2023-08-30T00:43:30;100051.09;;;12.04;100.00
43770;BME280;6597;52.218;9.882;2023-08-30T00:45:57;100056.41;;;12.03;100.00
43770;BME280;6597;52.218;9.882;2023-08-30T00:48:23;100058.16;;;12.02;100.00
43770;BME280;6597;52.218;9.882;2023-08-30T00:50:50;100056.47;;;12.01;100.00
43770;BME280;6597;52.218;9.882;2023-08-30T00:53:17;100056.56;;;12.00;100.00
43770;BME280;6597;52.218;9.882;2023-08-30T00:55:44;100053.06;;;11.99;100.00
43770;BME280;6597;52.218;9.882;2023-08-30T00:58:12;100054.00;;;11.98;100.00
43770;BME280;6597;52.218;9.882;2023-08-30T01:00:39;100045.94;;;12.01;100.00
43770;BME280;6597;52.218;9.882;2023-08-30T01:03:06;100058.25;;;12.01;100.00
43770;BME280;6597;52.218;9.882;2023-08-30T01:05:33;100055.63;;;12.01;100.00
43770;BME280;6597;52.218;9.882;2023-08-30T01:08:00;100055.69;;;11.99;100.00
43770;BME280;6597;52.218;9.882;2023-08-30T01:10:31;100054.94;;;11.97;100.00
43770;BME280;6597;52.218;9.882;2023-08-30T01:13:05;100049.84;;;11.94;100.00
43770;BME280;6597;52.218;9.882;2023-08-30T01:15:36;100052.47;;;11.94;100.00
43770;BME280;6597;52.218;9.882;2023-08-30T01:18:05;100047.38;;;11.91;100.00
43770;BME280;6597;52.218;9.882;2023-08-30T01:20:35;100046.59;;;11.89;100.00
43770;BME280;6597;52.218;9.882;2023-08-30T01:23:06;100046.75;;;11.86;100.00
43770;BME280;6597;52.218;9.882;2023-08-30T01:25:45;100043.19;;;11.87;100.00
43770;BME280;6597;52.218;9.882;2023-08-30T01:28:16;100045.13;;;11.83;100.00
43770;BME280;6597;52.218;9.882;2023-08-30T01:30:45;100038.34;;;11.79;100.00
43770;BME280;6597;52.218;9.882;2023-08-30T01:33:14;100033.28;;;11.75;100.00
43770;BME280;6597;52.218;9.882;2023-08-30T01:35:41;100029.97;;;11.71;100.00
43770;BME280;6597;52.218;9.882;2023-08-30T01:38:08;100039.75;;;11.68;100.00
43770;BME280;6597;52.218;9.882;2023-08-30T01:40:36;100042.56;;;11.65;100.00
43770;BME280;6597;52.218;9.882;2023-08-30T01:43:05;100034.81;;;11.62;100.00
43770;BME280;6597;52.218;9.882;2023-08-30T01:45:38;100038.38;;;11.61;100.00
43770;BME280;6597;52.218;9.882;2023-08-30T01:48:07;100028.81;;;11.60;100.00
43770;BME280;6597;52.218;9.882;2023-08-30T01:50:38;100027.03;;;11.60;100.00
43770;BME280;6597;52.218;9.882;2023-08-30T01:53:05;100026.00;;;11.63;100.00
43770;BME280;6597;52.218;9.882;2023-08-30T01:55:34;100028.56;;;11.64;100.00
43770;BME280;6597;52.218;9.882;2023-08-30T01:58:02;100027.72;;;11.64;100.00
43770;BME280;6597;52.218;9.882;2023-08-30T02:00:28;100034.81;;;11.62;100.00
43770;BME280;6597;52.218;9.882;2023-08-30T02:02:57;100024.47;;;11.59;100.00
43770;BME280;6597;52.218;9.882;2023-08-30T02:05:23;100031.59;;;11.57;100.00
43770;BME280;6597;52.218;9.882;2023-08-30T02:07:55;100037.78;;;11.56;100.00
43770;BME280;6597;52.218;9.882;2023-08-30T02:10:25;100016.91;;;11.52;100.00
43770;BME280;6597;52.218;9.882;2023-08-30T02:12:54;100026.66;;;11.50;100.00
43770;BME280;6597;52.218;9.882;2023-08-30T02:15:24;100025.94;;;11.47;100.00
43770;BME280;6597;52.218;9.882;2023-08-30T02:17:52;100022.56;;;11.45;100.00
43770;BME280;6597;52.218;9.882;2023-08-30T02:20:20;100022.63;;;11.43;100.00
43770;BME280;6597;52.218;9.882;2023-08-30T02:22:48;100021.84;;;11.41;100.00
43770;BME280;6597;52.218;9.882;2023-08-30T02:25:14;100013.31;;;11.36;100.00
43770;BME280;6597;52.218;9.882;2023-08-30T02:27:41;100016.88;;;11.35;100.00
43770;BME280;6597;52.218;9.882;2023-08-30T02:30:08;99998.97;;;11.26;100.00
43770;BME280;6597;52.218;9.882;2023-08-30T02:32:34;100008.22;;;11.33;100.00
43770;BME280;6597;52.218;9.882;2023-08-30T02:35:01;100017.13;;;11.31;100.00
43770;BME280;6597;52.218;9.882;2023-08-30T02:37:30;100022.59;;;11.26;100.00
43770;BME280;6597;52.218;9.882;2023-08-30T02:39:56;100024.53;;;11.22;100.00
43770;BME280;6597;52.218;9.882;2023-08-30T02:42:23;100022.06;;;11.19;100.00
43770;BME280;6597;52.218;9.882;2023-08-30T02:44:53;100010.84;;;11.16;100.00
43770;BME280;6597;52.218;9.882;2023-08-30T02:47:19;100019.75;;;11.13;100.00
43770;BME280;6597;52.218;9.882;2023-08-30T02:49:46;100023.38;;;11.11;100.00
43770;BME280;6597;52.218;9.882;2023-08-30T02:52:12;100009.63;;;11.06;100.00
43770;BME280;6597;52.218;9.882;2023-08-30T02:54:40;100020.25;;;11.03;100.00
43770;BME280;6597;52.218;9.882;2023-08-30T02:57:07;100020.47;;;10.98;100.00
43770;BME280;6597;52.218;9.882;2023-08-30T02:59:34;100019.84;;;10.93;100.00
43770;BME280;6597;52.218;9.882;2023-08-30T03:02:04;100019.06;;;10.91;100.00
43770;BME280;6597;52.218;9.882;2023-08-30T03:04:31;100018.28;;;10.89;100.00
43770;BME280;6597;52.218;9.882;2023-08-30T03:06:58;100020.06;;;10.88;100.00
43770;BME280;6597;52.218;9.882;2023-08-30T03:09:26;100013.28;;;10.84;100.00
43770;BME280;6597;52.218;9.882;2023-08-30T03:11:55;100016.75;;;10.85;100.00
43770;BME280;6597;52.218;9.882;2023-08-30T03:14:22;100016.75;;;10.85;100.00
43770;BME280;6597;52.218;9.882;2023-08-30T03:16:49;100018.38;;;10.87;100.00
43770;BME280;6597;52.218;9.882;2023-08-30T03:19:16;100013.13;;;10.87;100.00
43770;BME280;6597;52.218;9.882;2023-08-30T03:21:43;100011.28;;;10.89;100.00
43770;BME280;6597;52.218;9.882;2023-08-30T03:24:10;100016.44;;;10.91;100.00
43770;BME280;6597;52.218;9.882;2023-08-30T03:26:37;100019.91;;;10.91;100.00
43770;BME280;6597;52.218;9.882;2023-08-30T03:29:05;100010.97;;;10.96;100.00
43770;BME280;6597;52.218;9.882;2023-08-30T03:31:31;100006.66;;;10.95;100.00
43770;BME280;6597;52.218;9.882;2023-08-30T03:33:58;99997.13;;;10.92;100.00
43770;BME280;6597;52.218;9.882;2023-08-30T03:36:24;99999.00;;;10.90;100.00
43770;BME280;6597;52.218;9.882;2023-08-30T03:38:52;100000.69;;;10.91;100.00
43770;BME280;6597;52.218;9.882;2023-08-30T03:41:18;99994.22;;;10.98;100.00
43770;BME280;6597;52.218;9.882;2023-08-30T03:43:45;99989.03;;;10.97;100.00
43770;BME280;6597;52.218;9.882;2023-08-30T03:46:13;99994.22;;;10.98;100.00
43770;BME280;6597;52.218;9.882;2023-08-30T03:48:40;99997.69;;;10.99;100.00
43770;BME280;6597;52.218;9.882;2023-08-30T03:51:06;99989.03;;;10.97;100.00
43770;BME280;6597;52.218;9.882;2023-08-30T03:53:33;99996.06;;;10.96;100.00
43770;BME280;6597;52.218;9.882;2023-08-30T03:55:59;100001.38;;;10.95;100.00
43770;BME280;6597;52.218;9.882;2023-08-30T03:58:26;99999.84;;;10.90;100.00
43770;BME280;6597;52.218;9.882;2023-08-30T04:00:52;99996.44;;;10.88;100.00
43770;BME280;6597;52.218;9.882;2023-08-30T04:03:20;100010.50;;;10.87;100.00
43770;BME280;6597;52.218;9.882;2023-08-30T04:05:47;100001.06;;;10.83;100.00
43770;BME280;6597;52.218;9.882;2023-08-30T04:08:14;99991.72;;;10.78;100.00
43770;BME280;6597;52.218;9.882;2023-08-30T04:10:41;99996.03;;;10.79;100.00
43770;BME280;6597;52.218;9.882;2023-08-30T04:13:09;99990.78;;;10.79;100.00
43770;BME280;6597;52.218;9.882;2023-08-30T04:15:36;99983.91;;;10.76;100.00
43770;BME280;6597;52.218;9.882;2023-08-30T04:18:04;99983.16;;;10.74;100.00
43770;BME280;6597;52.218;9.882;2023-08-30T04:20:33;99979.72;;;10.72;100.00
43770;BME280;6597;52.218;9.882;2023-08-30T04:23:00;99988.31;;;10.76;100.00
43770;BME280;6597;52.218;9.882;2023-08-30T04:25:29;99986.53;;;10.76;100.00
43770;BME280;6597;52.218;9.882;2023-08-30T04:27:57;99983.34;;;10.70;100.00
43770;BME280;6597;52.218;9.882;2023-08-30T04:30:24;99980.78;;;10.68;100.00
43770;BME280;6597;52.218;9.882;2023-08-30T04:32:51;99978.16;;;10.68;100.00
43770;BME280;6597;52.218;9.882;2023-08-30T04:35:18;99975.69;;;10.65;100.00
43770;BME280;6597;52.218;9.882;2023-08-30T04:37:46;99971.91;;;10.71;100.00
43770;BME280;6597;52.218;9.882;2023-08-30T04:40:14;99970.78;;;10.76;100.00
43770;BME280;6597;52.218;9.882;2023-08-30T04:42:40;99971.50;;;10.80;100.00
43770;BME280;6597;52.218;9.882;2023-08-30T04:45:08;99972.97;;;10.85;100.00
43770;BME280;6597;52.218;9.882;2023-08-30T04:47:35;99970.97;;;10.90;100.00
43770;BME280;6597;52.218;9.882;2023-08-30T04:50:02;99968.19;;;10.94;100.00
43770;BME280;6597;52.218;9.882;2023-08-30T04:52:29;99967.34;;;10.93;100.00
43770;BME280;6597;52.218;9.882;2023-08-30T04:54:58;99965.41;;;10.97;100.00
43770;BME280;6597;52.218;9.882;2023-08-30T04:57:26;99969.56;;;11.01;100.00
43770;BME280;6597;52.218;9.882;2023-08-30T04:59:53;99978.09;;;11.06;100.00
43770;BME280;6597;52.218;9.882;2023-08-30T05:02:19;99977.72;;;11.13;100.00
43770;BME280;6597;52.218;9.882;2023-08-30T05:05:07;99976.41;;;11.22;100.00
43770;BME280;6597;52.218;9.882;2023-08-30T05:07:34;99976.09;;;11.28;100.00
43770;BME280;6597;52.218;9.882;2023-08-30T05:10:03;99976.63;;;11.35;100.00
43770;BME280;6597;52.218;9.882;2023-08-30T05:12:32;99970.22;;;11.40;100.00
43770;BME280;6597;52.218;9.882;2023-08-30T05:14:59;99975.16;;;11.46;100.00
43770;BME280;6597;52.218;9.882;2023-08-30T05:17:27;99979.94;;;11.56;100.00
43770;BME280;6597;52.218;9.882;2023-08-30T05:19:55;99975.13;;;11.64;100.00
43770;BME280;6597;52.218;9.882;2023-08-30T05:22:22;99973.91;;;11.71;100.00
43770;BME280;6597;52.218;9.882;2023-08-30T05:24:48;99969.19;;;11.77;100.00
43770;BME280;6597;52.218;9.882;2023-08-30T05:27:16;99970.41;;;11.88;100.00
43770;BME280;6597;52.218;9.882;2023-08-30T05:29:43;99976.78;;;11.99;100.00
43770;BME280;6597;52.218;9.882;2023-08-30T05:32:10;99963.94;;;12.10;100.00
43770;BME280;6597;52.218;9.882;2023-08-30T05:35:07;99965.03;;;12.22;100.00
43770;BME280;6597;52.218;9.882;2023-08-30T05:37:52;99969.56;;;12.36;100.00
43770;BME280;6597;52.218;9.882;2023-08-30T05:40:54;99973.31;;;12.48;100.00
43770;BME280;6597;52.218;9.882;2023-08-30T05:43:22;99971.84;;;12.58;100.00
43770;BME280;6597;52.218;9.882;2023-08-30T05:45:49;99976.59;;;12.67;100.00
43770;BME280;6597;52.218;9.882;2023-08-30T05:48:16;99982.97;;;12.78;100.00
43770;BME280;6597;52.218;9.882;2023-08-30T05:50:42;99982.44;;;12.88;100.00
43770;BME280;6597;52.218;9.882;2023-08-30T05:53:10;99981.91;;;12.97;100.00
43770;BME280;6597;52.218;9.882;2023-08-30T05:55:37;99971.72;;;13.06;100.00
43770;BME280;6597;52.218;9.882;2023-08-30T05:58:05;99958.09;;;13.14;100.00
43770;BME280;6597;52.218;9.882;2023-08-30T06:00:32;99954.94;;;13.23;100.00
43770;BME280;6597;52.218;9.882;2023-08-30T06:02:59;99949.22;;;13.31;100.00
43770;BME280;6597;52.218;9.882;2023-08-30T06:05:26;99946.16;;;13.38;100.00
43770;BME280;6597;52.218;9.882;2023-08-30T06:07:52;99944.84;;;13.46;100.00
43770;BME280;6597;52.218;9.882;2023-08-30T06:10:19;99940.88;;;13.53;100.00
43770;BME280;6597;52.218;9.882;2023-08-30T06:12:45;99942.09;;;13.61;100.00
43770;BME280;6597;52.218;9.882;2023-08-30T06:15:12;99940.91;;;13.67;100.00
43770;BME280;6597;52.218;9.882;2023-08-30T06:17:40;99941.38;;;13.74;100.00
43770;BME280;6597;52.218;9.882;2023-08-30T06:20:07;99940.91;;;13.81;100.00
43770;BME280;6597;52.218;9.882;2023-08-30T06:22:34;99938.53;;;13.91;100.00
43770;BME280;6597;52.218;9.882;2023-08-30T06:25:00;99947.78;;;13.98;100.00
43770;BME280;6597;52.218;9.882;2023-08-30T06:27:29;99951.56;;;14.08;100.00
43770;BME280;6597;52.218;9.882;2023-08-30T06:29:56;99935.25;;;14.16;100.00
43770;BME280;6597;52.218;9.882;2023-08-30T06:32:22;99940.03;;;14.23;100.00
43770;BME280;6597;52.218;9.882;2023-08-30T06:34:51;99935.88;;;14.33;100.00
43770;BME280;6597;52.218;9.882;2023-08-30T06:37:17;99934.38;;;14.44;100.00
43770;BME280;6597;52.218;9.882;2023-08-30T06:39:44;99932.63;;;14.57;100.00
43770;BME280;6597;52.218;9.882;2023-08-30T06:42:10;99929.31;;;14.68;100.00
43770;BME280;6597;52.218;9.882;2023-08-30T06:44:39;99924.16;;;14.79;100.00
43770;BME280;6597;52.218;9.882;2023-08-30T06:47:06;99920.16;;;14.86;100.00
43770;BME280;6597;52.218;9.882;2023-08-30T06:49:32;99919.22;;;14.87;100.00
43770;BME280;6597;52.218;9.882;2023-08-30T06:52:00;99919.28;;;15.00;100.00
43770;BME280;6597;52.218;9.882;2023-08-30T06:54:29;99924.13;;;15.06;100.00
43770;BME280;6597;52.218;9.882;2023-08-30T06:56:57;99936.09;;;15.11;100.00
43770;BME280;6597;52.218;9.882;2023-08-30T06:59:24;99929.75;;;15.14;100.00
43770;BME280;6597;52.218;9.882;2023-08-30T07:01:51;99920.75;;;15.16;100.00
43770;BME280;6597;52.218;9.882;2023-08-30T07:04:17;99929.03;;;15.24;100.00
43770;BME280;6597;52.218;9.882;2023-08-30T07:06:44;99923.63;;;15.26;100.00
43770;BME280;6597;52.218;9.882;2023-08-30T07:09:12;99924.63;;;15.38;100.00
43770;BME280;6597;52.218;9.882;2023-08-30T07:11:39;99933.59;;;15.48;100.00
43770;BME280;6597;52.218;9.882;2023-08-30T07:14:09;99928.06;;;15.65;100.00
43770;BME280;6597;52.218;9.882;2023-08-30T07:16:36;99936.06;;;15.89;97.94
43770;BME280;6597;52.218;9.882;2023-08-30T07:19:02;99931.91;;;16.10;96.89
43770;BME280;6597;52.218;9.882;2023-08-30T07:21:29;99935.25;;;16.38;96.00
43770;BME280;6597;52.218;9.882;2023-08-30T07:23:56;99936.22;;;16.61;93.22
43770;BME280;6597;52.218;9.882;2023-08-30T07:26:23;99935.00;;;16.77;91.61
43770;BME280;6597;52.218;9.882;2023-08-30T07:28:50;99924.63;;;16.98;90.60
43770;BME280;6597;52.218;9.882;2023-08-30T07:31:16;99927.09;;;17.13;87.70
43770;BME280;6597;52.218;9.882;2023-08-30T07:33:43;99916.63;;;17.22;87.00
43770;BME280;6597;52.218;9.882;2023-08-30T07:36:10;99912.19;;;17.34;84.56
43770;BME280;6597;52.218;9.882;2023-08-30T07:38:37;99903.53;;;17.54;83.11
43770;BME280;6597;52.218;9.882;2023-08-30T07:41:04;99903.59;;;17.77;81.66
43770;BME280;6597;52.218;9.882;2023-08-30T07:43:32;99913.38;;;17.98;80.48
43770;BME280;6597;52.218;9.882;2023-08-30T07:45:59;99915.28;;;18.19;77.96
43770;BME280;6597;52.218;9.882;2023-08-30T07:48:25;99921.19;;;18.33;76.92
43770;BME280;6597;52.218;9.882;2023-08-30T07:50:52;99916.69;;;18.45;77.08
43770;BME280;6597;52.218;9.882;2023-08-30T07:53:18;99922.00;;;18.56;74.28
43770;BME280;6597;52.218;9.882;2023-08-30T07:55:48;99917.16;;;18.61;73.58
43770;BME280;6597;52.218;9.882;2023-08-30T07:58:15;99915.69;;;18.69;74.45
43770;BME280;6597;52.218;9.882;2023-08-30T08:00:43;99910.47;;;18.78;73.98
43770;BME280;6597;52.218;9.882;2023-08-30T08:03:10;99912.38;;;18.87;73.88
43770;BME280;6597;52.218;9.882;2023-08-30T08:05:36;99913.31;;;18.98;73.62
43770;BME280;6597;52.218;9.882;2023-08-30T08:08:03;99902.22;;;19.13;73.55
43770;BME280;6597;52.218;9.882;2023-08-30T08:10:31;99903.97;;;19.24;71.24
43770;BME280;6597;52.218;9.882;2023-08-30T08:12:58;99909.94;;;19.37;71.87
43770;BME280;6597;52.218;9.882;2023-08-30T08:15:24;99914.06;;;19.51;72.16
43770;BME280;6597;52.218;9.882;2023-08-30T08:17:53;99907.88;;;19.62;71.14
43770;BME280;6597;52.218;9.882;2023-08-30T08:20:19;99903.81;;;19.57;68.67
43770;BME280;6597;52.218;9.882;2023-08-30T08:22:46;99907.56;;;19.55;67.79
43770;BME280;6597;52.218;9.882;2023-08-30T08:25:13;99910.94;;;19.57;69.34
43770;BME280;6597;52.218;9.882;2023-08-30T08:27:39;99908.47;;;19.65;68.70
43770;BME280;6597;52.218;9.882;2023-08-30T08:30:07;99901.31;;;19.66;67.32
43770;BME280;6597;52.218;9.882;2023-08-30T08:32:34;99903.81;;;19.57;67.18
43770;BME280;6597;52.218;9.882;2023-08-30T08:35:03;99905.22;;;19.62;69.36
43770;BME280;6597;52.218;9.882;2023-08-30T08:37:30;99897.00;;;19.74;69.96
43770;BME280;6597;52.218;9.882;2023-08-30T08:39:57;99896.53;;;19.90;69.35
43770;BME280;6597;52.218;9.882;2023-08-30T08:42:23;99897.81;;;19.96;67.25
43770;BME280;6597;52.218;9.882;2023-08-30T08:44:51;99900.75;;;19.93;67.69
43770;BME280;6597;52.218;9.882;2023-08-30T08:47:19;99905.25;;;19.71;68.32
43770;BME280;6597;52.218;9.882;2023-08-30T08:49:46;99904.78;;;19.56;68.97
43770;BME280;6597;52.218;9.882;2023-08-30T08:52:15;99902.47;;;19.52;69.97
43770;BME280;6597;52.218;9.882;2023-08-30T08:54:42;99898.91;;;19.42;70.29
43770;BME280;6597;52.218;9.882;2023-08-30T08:57:09;99906.31;;;19.38;71.19
43770;BME280;6597;52.218;9.882;2023-08-30T08:59:36;99894.59;;;19.50;71.69
43770;BME280;6597;52.218;9.882;2023-08-30T09:02:03;99897.25;;;19.50;72.00
43770;BME280;6597;52.218;9.882;2023-08-30T09:04:31;99898.97;;;19.51;71.80
43770;BME280;6597;52.218;9.882;2023-08-30T09:06:58;99903.38;;;19.41;72.18
43770;BME280;6597;52.218;9.882;2023-08-30T09:09:27;99890.31;;;19.17;70.98
43770;BME280;6597;52.218;9.882;2023-08-30T09:11:53;99889.13;;;19.21;72.64
43770;BME280;6597;52.218;9.882;2023-08-30T09:14:20;99896.97;;;19.23;72.97
43770;BME280;6597;52.218;9.882;2023-08-30T09:16:54;99890.81;;;19.22;73.16
43770;BME280;6597;52.218;9.882;2023-08-30T09:19:21;99891.72;;;19.33;72.50
43770;BME280;6597;52.218;9.882;2023-08-30T09:21:52;99900.47;;;19.44;71.62
43770;BME280;6597;52.218;9.882;2023-08-30T09:24:18;99896.22;;;19.53;72.18
43770;BME280;6597;52.218;9.882;2023-08-30T09:26:49;99898.34;;;19.59;71.43
43770;BME280;6597;52.218;9.882;2023-08-30T09:29:17;99896.88;;;19.76;71.53
43770;BME280;6597;52.218;9.882;2023-08-30T09:31:44;99889.38;;;19.91;70.32
43770;BME280;6597;52.218;9.882;2023-08-30T09:34:11;99889.16;;;20.13;69.40
43770;BME280;6597;52.218;9.882;2023-08-30T09:36:39;99888.53;;;20.30;69.46
43770;BME280;6597;52.218;9.882;2023-08-30T09:39:07;99874.16;;;20.52;68.59
43770;BME280;6597;52.218;9.882;2023-08-30T09:41:34;99883.13;;;20.70;67.51
43770;BME280;6597;52.218;9.882;2023-08-30T09:44:09;99890.00;;;21.02;66.44
43770;BME280;6597;52.218;9.882;2023-08-30T09:46:41;99881.59;;;21.16;66.13
43770;BME280;6597;52.218;9.882;2023-08-30T09:49:08;99874.97;;;21.20;62.51
43770;BME280;6597;52.218;9.882;2023-08-30T09:51:35;99888.91;;;21.14;63.47
43770;BME280;6597;52.218;9.882;2023-08-30T09:54:04;99872.44;;;21.28;65.59
43770;BME280;6597;52.218;9.882;2023-08-30T09:56:32;99880.97;;;21.41;62.37
43770;BME280;6597;52.218;9.882;2023-08-30T09:58:59;99871.00;;;21.43;61.97
43770;BME280;6597;52.218;9.882;2023-08-30T10:01:28;99879.72;;;21.46;63.07
43770;BME280;6597;52.218;9.882;2023-08-30T10:03:56;99873.53;;;21.45;61.26
43770;BME280;6597;52.218;9.882;2023-08-30T10:06:24;99882.38;;;21.55;61.61
43770;BME280;6597;52.218;9.882;2023-08-30T10:08:52;99868.78;;;21.76;63.24
43770;BME280;6597;52.218;9.882;2023-08-30T10:11:21;99880.75;;;21.82;60.12
43770;BME280;6597;52.218;9.882;2023-08-30T10:13:48;99875.44;;;21.99;59.98
43770;BME280;6597;52.218;9.882;2023-08-30T10:16:18;99876.22;;;22.19;60.59
43770;BME280;6597;52.218;9.882;2023-08-30T10:18:50;99869.44;;;22.43;60.02
43770;BME280;6597;52.218;9.882;2023-08-30T10:21:18;99868.63;;;22.60;58.70
43770;BME280;6597;52.218;9.882;2023-08-30T10:23:45;99865.50;;;22.64;58.90
43770;BME280;6597;52.218;9.882;2023-08-30T10:26:14;99858.78;;;22.60;57.77
43770;BME280;6597;52.218;9.882;2023-08-30T10:28:42;99862.09;;;22.27;58.07
43770;BME280;6597;52.218;9.882;2023-08-30T10:31:10;99870.69;;;21.93;59.54
43770;BME280;6597;52.218;9.882;2023-08-30T10:33:48;99860.06;;;21.74;59.14
43770;BME280;6597;52.218;9.882;2023-08-30T10:36:20;99853.44;;;21.78;61.00
43770;BME280;6597;52.218;9.882;2023-08-30T10:38:48;99850.38;;;22.10;60.97
43770;BME280;6597;52.218;9.882;2023-08-30T10:41:20;99864.47;;;22.30;58.43
43770;BME280;6597;52.218;9.882;2023-08-30T10:43:49;99858.28;;;22.29;59.25
43770;BME280;6597;52.218;9.882;2023-08-30T10:46:17;99854.84;;;22.37;60.00
43770;BME280;6597;52.218;9.882;2023-08-30T10:48:56;99851.72;;;22.42;58.03
43770;BME280;6597;52.218;9.882;2023-08-30T10:51:35;99853.97;;;22.46;58.87
43770;BME280;6597;52.218;9.882;2023-08-30T10:54:10;99847.34;;;22.41;57.02
43770;BME280;6597;52.218;9.882;2023-08-30T10:56:45;99843.03;;;22.57;60.09
43770;BME280;6597;52.218;9.882;2023-08-30T10:59:16;99844.78;;;22.66;58.02
43770;BME280;6597;52.218;9.882;2023-08-30T11:01:43;99842.34;;;22.55;56.92
43770;BME280;6597;52.218;9.882;2023-08-30T11:04:12;99836.06;;;22.29;56.78
43770;BME280;6597;52.218;9.882;2023-08-30T11:06:39;99834.91;;;22.14;58.50
43770;BME280;6597;52.218;9.882;2023-08-30T11:09:06;99836.31;;;22.08;59.73
43770;BME280;6597;52.218;9.882;2023-08-30T11:11:33;99828.03;;;22.01;58.47
43770;BME280;6597;52.218;9.882;2023-08-30T11:14:03;99827.16;;;21.83;57.24
43770;BME280;6597;52.218;9.882;2023-08-30T11:16:30;99813.97;;;21.72;59.20
43770;BME280;6597;52.218;9.882;2023-08-30T11:18:57;99819.81;;;21.58;61.52
43770;BME280;6597;52.218;9.882;2023-08-30T11:21:25;99815.50;;;21.47;61.51
43770;BME280;6597;52.218;9.882;2023-08-30T11:23:51;99810.03;;;21.39;62.68
43770;BME280;6597;52.218;9.882;2023-08-30T11:26:18;99808.53;;;21.27;62.97
43770;BME280;6597;52.218;9.882;2023-08-30T11:28:44;99803.50;;;21.14;62.60
43770;BME280;6597;52.218;9.882;2023-08-30T11:31:18;99803.94;;;21.00;63.05
43770;BME280;6597;52.218;9.882;2023-08-30T11:33:50;99803.94;;;20.80;63.87
43770;BME280;6597;52.218;9.882;2023-08-30T11:36:17;99812.25;;;20.68;63.94
43770;BME280;6597;52.218;9.882;2023-08-30T11:38:45;99812.13;;;20.50;64.09
43770;BME280;6597;52.218;9.882;2023-08-30T11:41:12;99804.22;;;20.39;65.14
43770;BME280;6597;52.218;9.882;2023-08-30T11:43:39;99807.44;;;20.33;65.21
43770;BME280;6597;52.218;9.882;2023-08-30T11:46:06;99804.91;;;20.22;65.54
43770;BME280;6597;52.218;9.882;2023-08-30T11:48:34;99812.88;;;20.12;65.53
43770;BME280;6597;52.218;9.882;2023-08-30T11:51:01;99805.72;;;20.03;66.68
43770;BME280;6597;52.218;9.882;2023-08-30T11:53:28;99801.78;;;20.07;67.67
43770;BME280;6597;52.218;9.882;2023-08-30T11:55:56;99799.41;;;20.04;67.08
43770;BME280;6597;52.218;9.882;2023-08-30T11:58:23;99797.56;;;20.04;67.84
43770;BME280;6597;52.218;9.882;2023-08-30T12:00:50;99796.16;;;20.00;68.60
43770;BME280;6597;52.218;9.882;2023-08-30T12:03:18;99791.53;;;20.02;67.88
43770;BME280;6597;52.218;9.882;2023-08-30T12:05:46;99781.88;;;20.01;69.21
43770;BME280;6597;52.218;9.882;2023-08-30T12:08:19;99782.22;;;20.46;68.59
43770;BME280;6597;52.218;9.882;2023-08-30T12:10:46;99771.72;;;21.11;67.63
43770;BME280;6597;52.218;9.882;2023-08-30T12:13:24;99763.03;;;21.83;64.40
43770;BME280;6597;52.218;9.882;2023-08-30T12:15:50;99756.22;;;22.34;59.95
43770;BME280;6597;52.218;9.882;2023-08-30T12:18:20;99757.03;;;22.70;57.30
43770;BME280;6597;52.218;9.882;2023-08-30T12:20:52;99757.50;;;23.09;56.60
43770;BME280;6597;52.218;9.882;2023-08-30T12:23:20;99754.44;;;23.30;54.53
43770;BME280;6597;52.218;9.882;2023-08-30T12:25:56;99747.44;;;23.37;54.98
43770;BME280;6597;52.218;9.882;2023-08-30T12:28:25;99736.25;;;23.42;54.47
43770;BME280;6597;52.218;9.882;2023-08-30T12:30:51;99733.53;;;23.68;54.21
43770;BME280;6597;52.218;9.882;2023-08-30T12:33:18;99732.03;;;23.73;53.93
43770;BME280;6597;52.218;9.882;2023-08-30T12:35:45;99726.72;;;23.98;54.97
43770;BME280;6597;52.218;9.882;2023-08-30T12:38:11;99732.81;;;24.24;52.71
43770;BME280;6597;52.218;9.882;2023-08-30T12:40:43;99730.16;;;24.32;51.08
43770;BME280;6597;52.218;9.882;2023-08-30T12:43:10;99728.28;;;24.16;49.65
43770;BME280;6597;52.218;9.882;2023-08-30T12:45:38;99730.59;;;24.03;49.61
43770;BME280;6597;52.218;9.882;2023-08-30T12:48:05;99728.78;;;24.12;50.09
43770;BME280;6597;52.218;9.882;2023-08-30T12:50:32;99716.38;;;24.27;50.57
43770;BME280;6597;52.218;9.882;2023-08-30T12:52:58;99722.44;;;24.37;49.47
43770;BME280;6597;52.218;9.882;2023-08-30T12:55:25;99712.88;;;24.59;47.86
43770;BME280;6597;52.218;9.882;2023-08-30T12:57:52;99707.53;;;24.59;47.65
43770;BME280;6597;52.218;9.882;2023-08-30T13:00:19;99695.97;;;24.42;48.72
43770;BME280;6597;52.218;9.882;2023-08-30T13:02:46;99697.81;;;24.58;50.53
43770;BME280;6597;52.218;9.882;2023-08-30T13:05:13;99694.94;;;24.76;50.52
43770;BME280;6597;52.218;9.882;2023-08-30T13:07:40;99694.25;;;24.09;48.99